sensor_id;sensor_type;location;lat;lon;timestamp;P1;durP1;ratioP1;P2;durP2;ratioP2
7917;SDS011;4004;42.624;23.386;2024-02-28T00:01:09;21.00;;;14.93;;
7917;SDS011;4004;42.624;23.386;2024-02-28T00:03:36;23.60;;;14.87;;
7917;SDS011;4004;42.624;23.386;2024-02-28T00:06:03;24.10;;;14.83;;
7917;SDS011;4004;42.624;23.386;2024-02-28T00:08:30;19.27;;;14.50;;
7917;SDS011;4004;42.624;23.386;2024-02-28T00:10:57;20.43;;;14.70;;
7917;SDS011;4004;42.624;23.386;2024-02-28T00:13:24;24.90;;;14.67;;
7917;SDS011;4004;42.624;23.386;2024-02-28T00:15:51;20.60;;;14.20;;
7917;SDS011;4004;42.624;23.386;2024-02-28T00:18:19;23.10;;;15.57;;
7917;SDS011;4004;42.624;23.386;2024-02-28T00:20:46;20.83;;;15.40;;
7917;SDS011;4004;42.624;23.386;2024-02-28T00:23:13;24.00;;;15.20;;
7917;SDS011;4004;42.624;23.386;2024-02-28T00:25:40;24.53;;;16.30;;
7917;SDS011;4004;42.624;23.386;2024-02-28T00:28:07;23.70;;;15.83;;
7917;SDS011;4004;42.624;23.386;2024-02-28T00:30:34;27.67;;;15.50;;
7917;SDS011;4004;42.624;23.386;2024-02-28T00:33:01;25.10;;;16.63;;
7917;SDS011;4004;42.624;23.386;2024-02-28T00:35:31;20.93;;;15.33;;
7917;SDS011;4004;42.624;23.386;2024-02-28T00:37:59;20.73;;;14.93;;
7917;SDS011;4004;42.624;23.386;2024-02-28T00:40:26;21.97;;;15.67;;
7917;SDS011;4004;42.624;23.386;2024-02-28T00:42:53;22.83;;;16.13;;
7917;SDS011;4004;42.624;23.386;2024-02-28T00:45:20;24.93;;;17.13;;
7917;SDS011;4004;42.624;23.386;2024-02-28T00:47:47;26.47;;;15.83;;
7917;SDS011;4004;42.624;23.386;2024-02-28T00:50:14;21.53;;;15.23;;
7917;SDS011;4004;42.624;23.386;2024-02-28T00:52:42;22.13;;;16.17;;
7917;SDS011;4004;42.624;23.386;2024-02-28T00:55:09;23.47;;;16.53;;
7917;SDS011;4004;42.624;23.386;2024-02-28T00:57:36;22.23;;;17.33;;
7917;SDS011;4004;42.624;23.386;2024-02-28T01:00:03;28.20;;;17.20;;
7917;SDS011;4004;42.624;23.386;2024-02-28T01:02:31;22.70;;;17.33;;
7917;SDS011;4004;42.624;23.386;2024-02-28T01:04:58;25.17;;;16.83;;
7917;SDS011;4004;42.624;23.386;2024-02-28T01:07:25;24.43;;;17.90;;
7917;SDS011;4004;42.624;23.386;2024-02-28T01:09:53;24.23;;;17.83;;
7917;SDS011;4004;42.624;23.386;2024-02-28T01:12:20;22.43;;;17.23;;
7917;SDS011;4004;42.624;23.386;2024-02-28T01:14:47;24.77;;;17.23;;
7917;SDS011;4004;42.624;23.386;2024-02-28T01:17:14;29.03;;;18.30;;
7917;SDS011;4004;42.624;23.386;2024-02-28T01:19:41;26.50;;;17.10;;
7917;SDS011;4004;42.624;23.386;2024-02-28T01:22:08;25.33;;;17.03;;
7917;SDS011;4004;42.624;23.386;2024-02-28T01:24:35;28.00;;;17.80;;
7917;SDS011;4004;42.624;23.386;2024-02-28T01:27:03;23.73;;;15.53;;
7917;SDS011;4004;42.624;23.386;2024-02-28T01:29:30;25.00;;;17.90;;
7917;SDS011;4004;42.624;23.386;2024-02-28T01:31:57;25.17;;;17.53;;
7917;SDS011;4004;42.624;23.386;2024-02-28T01:34:24;23.80;;;17.30;;
7917;SDS011;4004;42.624;23.386;2024-02-28T01:36:51;29.60;;;17.63;;
7917;SDS011;4004;42.624;23.386;2024-02-28T01:39:18;25.17;;;18.97;;
7917;SDS011;4004;42.624;23.386;2024-02-28T01:41:50;23.00;;;18.03;;
7917;SDS011;4004;42.624;23.386;2024-02-28T01:44:19;33.83;;;23.07;;
7917;SDS011;4004;42.624;23.386;2024-02-28T01:46:46;29.43;;;22.50;;
7917;SDS011;4004;42.624;23.386;2024-02-28T01:49:13;30.00;;;18.07;;
7917;SDS011;4004;42.624;23.386;2024-02-28T01:51:42;22.13;;;17.63;;
7917;SDS011;4004;42.624;23.386;2024-02-28T01:54:11;28.00;;;18.00;;
7917;SDS011;4004;42.624;23.386;2024-02-28T01:56:38;25.30;;;18.73;;
7917;SDS011;4004;42.624;23.386;2024-02-28T01:59:06;24.47;;;18.10;;
7917;SDS011;4004;42.624;23.386;2024-02-28T02:01:37;27.27;;;17.40;;
7917;SDS011;4004;42.624;23.386;2024-02-28T02:04:04;26.60;;;18.37;;
7917;SDS011;4004;42.624;23.386;2024-02-28T02:06:32;25.00;;;18.40;;
7917;SDS011;4004;42.624;23.386;2024-02-28T02:08:59;26.30;;;18.77;;
7917;SDS011;4004;42.624;23.386;2024-02-28T02:11:27;23.30;;;17.30;;
7917;SDS011;4004;42.624;23.386;2024-02-28T02:13:55;23.13;;;17.97;;
7917;SDS011;4004;42.624;23.386;2024-02-28T02:16:22;26.07;;;18.57;;
7917;SDS011;4004;42.624;23.386;2024-02-28T02:18:52;25.47;;;18.33;;
7917;SDS011;4004;42.624;23.386;2024-02-28T02:21:21;27.73;;;18.37;;
7917;SDS011;4004;42.624;23.386;2024-02-28T02:23:50;28.80;;;18.10;;
7917;SDS011;4004;42.624;23.386;2024-02-28T02:26:17;25.30;;;17.67;;
7917;SDS011;4004;42.624;23.386;2024-02-28T02:28:44;23.77;;;17.67;;
7917;SDS011;4004;42.624;23.386;2024-02-28T02:31:11;25.87;;;17.67;;
7917;SDS011;4004;42.624;23.386;2024-02-28T02:33:39;27.10;;;17.90;;
7917;SDS011;4004;42.624;23.386;2024-02-28T02:36:06;26.33;;;18.13;;
7917;SDS011;4004;42.624;23.386;2024-02-28T02:38:33;29.73;;;19.23;;
7917;SDS011;4004;42.624;23.386;2024-02-28T02:41:02;27.43;;;18.27;;
7917;SDS011;4004;42.624;23.386;2024-02-28T02:43:29;28.70;;;18.17;;
7917;SDS011;4004;42.624;23.386;2024-02-28T02:45:56;27.13;;;17.77;;
7917;SDS011;4004;42.624;23.386;2024-02-28T02:48:23;28.60;;;19.17;;
7917;SDS011;4004;42.624;23.386;2024-02-28T02:50:49;27.47;;;18.70;;
7917;SDS011;4004;42.624;23.386;2024-02-28T02:53:17;28.23;;;18.67;;
7917;SDS011;4004;42.624;23.386;2024-02-28T02:55:44;27.37;;;18.70;;
7917;SDS011;4004;42.624;23.386;2024-02-28T02:58:12;24.93;;;17.77;;
7917;SDS011;4004;42.624;23.386;2024-02-28T03:00:39;32.07;;;18.87;;
7917;SDS011;4004;42.624;23.386;2024-02-28T03:03:06;27.67;;;18.47;;
7917;SDS011;4004;42.624;23.386;2024-02-28T03:05:33;24.73;;;18.67;;
7917;SDS011;4004;42.624;23.386;2024-02-28T03:08:00;27.23;;;19.50;;
7917;SDS011;4004;42.624;23.386;2024-02-28T03:10:27;26.87;;;19.37;;
7917;SDS011;4004;42.624;23.386;2024-02-28T03:12:55;25.23;;;17.90;;
7917;SDS011;4004;42.624;23.386;2024-02-28T03:15:23;28.77;;;18.73;;
7917;SDS011;4004;42.624;23.386;2024-02-28T03:17:50;24.07;;;18.80;;
7917;SDS011;4004;42.624;23.386;2024-02-28T03:20:17;26.13;;;17.23;;
7917;SDS011;4004;42.624;23.386;2024-02-28T03:22:44;25.00;;;18.17;;
7917;SDS011;4004;42.624;23.386;2024-02-28T03:25:10;26.17;;;18.80;;
7917;SDS011;4004;42.624;23.386;2024-02-28T03:27:37;28.70;;;17.77;;
7917;SDS011;4004;42.624;23.386;2024-02-28T03:30:05;30.60;;;18.17;;
7917;SDS011;4004;42.624;23.386;2024-02-28T03:32:34;26.60;;;18.43;;
7917;SDS011;4004;42.624;23.386;2024-02-28T03:35:01;25.57;;;18.30;;
7917;SDS011;4004;42.624;23.386;2024-02-28T03:37:29;27.33;;;18.70;;
7917;SDS011;4004;42.624;23.386;2024-02-28T03:39:56;22.67;;;17.43;;
7917;SDS011;4004;42.624;23.386;2024-02-28T03:42:23;26.70;;;19.03;;
7917;SDS011;4004;42.624;23.386;2024-02-28T03:44:50;24.00;;;17.60;;
7917;SDS011;4004;42.624;23.386;2024-02-28T03:47:17;25.73;;;18.07;;
7917;SDS011;4004;42.624;23.386;2024-02-28T03:49:45;31.97;;;18.97;;
7917;SDS011;4004;42.624;23.386;2024-02-28T03:52:12;30.17;;;19.10;;
7917;SDS011;4004;42.624;23.386;2024-02-28T03:54:41;25.70;;;17.70;;
7917;SDS011;4004;42.624;23.386;2024-02-28T03:57:08;26.57;;;18.47;;
7917;SDS011;4004;42.624;23.386;2024-02-28T03:59:35;25.07;;;17.73;;
7917;SDS011;4004;42.624;23.386;2024-02-28T04:02:02;31.90;;;18.37;;
7917;SDS011;4004;42.624;23.386;2024-02-28T04:04:29;29.27;;;18.90;;
7917;SDS011;4004;42.624;23.386;2024-02-28T04:06:58;27.97;;;19.90;;
7917;SDS011;4004;42.624;23.386;2024-02-28T04:09:24;27.80;;;19.47;;
7917;SDS011;4004;42.624;23.386;2024-02-28T04:11:51;32.73;;;19.57;;
7917;SDS011;4004;42.624;23.386;2024-02-28T04:14:18;26.83;;;19.77;;
7917;SDS011;4004;42.624;23.386;2024-02-28T04:16:45;28.63;;;19.53;;
7917;SDS011;4004;42.624;23.386;2024-02-28T04:19:12;28.40;;;19.83;;
7917;SDS011;4004;42.624;23.386;2024-02-28T04:21:39;33.33;;;18.80;;
7917;SDS011;4004;42.624;23.386;2024-02-28T04:24:08;30.83;;;20.50;;
7917;SDS011;4004;42.624;23.386;2024-02-28T04:26:35;28.47;;;18.90;;
7917;SDS011;4004;42.624;23.386;2024-02-28T04:29:02;31.47;;;19.60;;
7917;SDS011;4004;42.624;23.386;2024-02-28T04:31:31;28.40;;;19.40;;
7917;SDS011;4004;42.624;23.386;2024-02-28T04:33:58;25.70;;;18.23;;
7917;SDS011;4004;42.624;23.386;2024-02-28T04:36:24;27.17;;;19.53;;
7917;SDS011;4004;42.624;23.386;2024-02-28T04:38:51;28.00;;;19.63;;
7917;SDS011;4004;42.624;23.386;2024-02-28T04:41:19;29.43;;;19.73;;
7917;SDS011;4004;42.624;23.386;2024-02-28T04:43:46;24.00;;;18.10;;
7917;SDS011;4004;42.624;23.386;2024-02-28T04:46:13;27.07;;;18.33;;
7917;SDS011;4004;42.624;23.386;2024-02-28T04:48:40;26.33;;;18.43;;
7917;SDS011;4004;42.624;23.386;2024-02-28T04:51:07;26.73;;;18.77;;
7917;SDS011;4004;42.624;23.386;2024-02-28T04:53:34;24.50;;;18.40;;
7917;SDS011;4004;42.624;23.386;2024-02-28T04:56:01;31.17;;;19.97;;
7917;SDS011;4004;42.624;23.386;2024-02-28T04:58:29;26.20;;;18.47;;
7917;SDS011;4004;42.624;23.386;2024-02-28T05:00:56;24.90;;;18.27;;
7917;SDS011;4004;42.624;23.386;2024-02-28T05:03:23;26.63;;;16.90;;
7917;SDS011;4004;42.624;23.386;2024-02-28T05:05:50;25.53;;;18.13;;
7917;SDS011;4004;42.624;23.386;2024-02-28T05:08:17;27.30;;;17.87;;
7917;SDS011;4004;42.624;23.386;2024-02-28T05:10:44;22.67;;;17.83;;
7917;SDS011;4004;42.624;23.386;2024-02-28T05:13:11;34.47;;;19.60;;
7917;SDS011;4004;42.624;23.386;2024-02-28T05:15:39;32.67;;;19.27;;
7917;SDS011;4004;42.624;23.386;2024-02-28T05:18:06;25.50;;;18.30;;
7917;SDS011;4004;42.624;23.386;2024-02-28T05:20:33;27.00;;;18.17;;
7917;SDS011;4004;42.624;23.386;2024-02-28T05:23:00;25.33;;;16.70;;
7917;SDS011;4004;42.624;23.386;2024-02-28T05:25:27;30.87;;;17.90;;
7917;SDS011;4004;42.624;23.386;2024-02-28T05:27:54;29.57;;;18.80;;
7917;SDS011;4004;42.624;23.386;2024-02-28T05:30:20;27.17;;;19.07;;
7917;SDS011;4004;42.624;23.386;2024-02-28T05:32:49;26.40;;;17.40;;
7917;SDS011;4004;42.624;23.386;2024-02-28T05:35:16;28.50;;;19.17;;
7917;SDS011;4004;42.624;23.386;2024-02-28T05:37:43;28.20;;;18.67;;
7917;SDS011;4004;42.624;23.386;2024-02-28T05:40:11;27.53;;;18.47;;
7917;SDS011;4004;42.624;23.386;2024-02-28T05:42:39;30.60;;;18.97;;
7917;SDS011;4004;42.624;23.386;2024-02-28T05:45:08;31.57;;;17.07;;
7917;SDS011;4004;42.624;23.386;2024-02-28T05:47:35;25.47;;;17.63;;
7917;SDS011;4004;42.624;23.386;2024-02-28T05:50:04;25.60;;;17.40;;
7917;SDS011;4004;42.624;23.386;2024-02-28T05:52:32;28.73;;;17.57;;
7917;SDS011;4004;42.624;23.386;2024-02-28T05:54:59;33.00;;;17.70;;
7917;SDS011;4004;42.624;23.386;2024-02-28T05:57:26;24.33;;;16.50;;
7917;SDS011;4004;42.624;23.386;2024-02-28T05:59:53;28.63;;;17.93;;
7917;SDS011;4004;42.624;23.386;2024-02-28T06:02:20;28.77;;;17.20;;
7917;SDS011;4004;42.624;23.386;2024-02-28T06:04:46;28.50;;;16.00;;
7917;SDS011;4004;42.624;23.386;2024-02-28T06:07:15;23.47;;;15.60;;
7917;SDS011;4004;42.624;23.386;2024-02-28T06:09:42;22.80;;;16.13;;
7917;SDS011;4004;42.624;23.386;2024-02-28T06:12:08;18.63;;;14.30;;
7917;SDS011;4004;42.624;23.386;2024-02-28T06:14:35;30.30;;;17.00;;
7917;SDS011;4004;42.624;23.386;2024-02-28T06:17:02;24.27;;;17.07;;
7917;SDS011;4004;42.624;23.386;2024-02-28T06:19:29;32.47;;;16.30;;
7917;SDS011;4004;42.624;23.386;2024-02-28T06:21:56;27.37;;;15.63;;
7917;SDS011;4004;42.624;23.386;2024-02-28T06:24:24;27.97;;;16.17;;
7917;SDS011;4004;42.624;23.386;2024-02-28T06:26:51;23.93;;;16.63;;
7917;SDS011;4004;42.624;23.386;2024-02-28T06:29:18;29.20;;;16.60;;
7917;SDS011;4004;42.624;23.386;2024-02-28T06:31:49;23.53;;;15.40;;
7917;SDS011;4004;42.624;23.386;2024-02-28T06:34:17;23.87;;;16.03;;
7917;SDS011;4004;42.624;23.386;2024-02-28T06:36:44;24.27;;;17.63;;
7917;SDS011;4004;42.624;23.386;2024-02-28T06:39:11;22.40;;;15.63;;
7917;SDS011;4004;42.624;23.386;2024-02-28T06:41:39;22.27;;;16.00;;
7917;SDS011;4004;42.624;23.386;2024-02-28T06:44:06;19.67;;;15.70;;
7917;SDS011;4004;42.624;23.386;2024-02-28T06:46:34;22.73;;;15.60;;
7917;SDS011;4004;42.624;23.386;2024-02-28T06:49:00;21.90;;;15.37;;
7917;SDS011;4004;42.624;23.386;2024-02-28T06:51:27;22.30;;;16.70;;
7917;SDS011;4004;42.624;23.386;2024-02-28T06:53:54;23.47;;;16.07;;
7917;SDS011;4004;42.624;23.386;2024-02-28T06:56:21;23.47;;;17.10;;
7917;SDS011;4004;42.624;23.386;2024-02-28T06:58:49;26.53;;;17.80;;
7917;SDS011;4004;42.624;23.386;2024-02-28T07:01:17;26.37;;;18.00;;
7917;SDS011;4004;42.624;23.386;2024-02-28T07:03:44;24.13;;;16.30;;
7917;SDS011;4004;42.624;23.386;2024-02-28T07:06:11;22.53;;;17.20;;
7917;SDS011;4004;42.624;23.386;2024-02-28T07:08:38;26.93;;;17.93;;
7917;SDS011;4004;42.624;23.386;2024-02-28T07:11:04;23.63;;;17.73;;
7917;SDS011;4004;42.624;23.386;2024-02-28T07:13:39;26.77;;;18.40;;
7917;SDS011;4004;42.624;23.386;2024-02-28T07:16:07;22.83;;;17.70;;
7917;SDS011;4004;42.624;23.386;2024-02-28T07:18:34;26.17;;;16.97;;
7917;SDS011;4004;42.624;23.386;2024-02-28T07:21:01;28.93;;;18.60;;
7917;SDS011;4004;42.624;23.386;2024-02-28T07:23:28;23.97;;;17.07;;
7917;SDS011;4004;42.624;23.386;2024-02-28T07:25:55;25.50;;;18.00;;
7917;SDS011;4004;42.624;23.386;2024-02-28T07:28:22;22.93;;;16.83;;
7917;SDS011;4004;42.624;23.386;2024-02-28T07:30:49;23.33;;;17.40;;
7917;SDS011;4004;42.624;23.386;2024-02-28T07:33:17;27.03;;;18.27;;
7917;SDS011;4004;42.624;23.386;2024-02-28T07:35:44;29.40;;;17.87;;
7917;SDS011;4004;42.624;23.386;2024-02-28T07:38:11;25.43;;;16.80;;
7917;SDS011;4004;42.624;23.386;2024-02-28T07:40:38;25.77;;;18.27;;
7917;SDS011;4004;42.624;23.386;2024-02-28T07:43:05;22.60;;;17.13;;
7917;SDS011;4004;42.624;23.386;2024-02-28T07:45:32;28.87;;;17.97;;
7917;SDS011;4004;42.624;23.386;2024-02-28T07:47:59;24.30;;;17.37;;
7917;SDS011;4004;42.624;23.386;2024-02-28T07:50:28;22.50;;;17.13;;
7917;SDS011;4004;42.624;23.386;2024-02-28T07:52:55;22.53;;;16.67;;
7917;SDS011;4004;42.624;23.386;2024-02-28T07:55:22;24.90;;;17.40;;
7917;SDS011;4004;42.624;23.386;2024-02-28T07:57:50;20.90;;;16.57;;
7917;SDS011;4004;42.624;23.386;2024-02-28T08:00:18;25.10;;;18.63;;
7917;SDS011;4004;42.624;23.386;2024-02-28T08:02:45;21.10;;;16.13;;
7917;SDS011;4004;42.624;23.386;2024-02-28T08:05:13;27.10;;;16.07;;
7917;SDS011;4004;42.624;23.386;2024-02-28T08:07:41;22.97;;;16.13;;
7917;SDS011;4004;42.624;23.386;2024-02-28T08:10:08;20.13;;;15.60;;
7917;SDS011;4004;42.624;23.386;2024-02-28T08:12:36;26.60;;;16.20;;
7917;SDS011;4004;42.624;23.386;2024-02-28T08:15:04;22.10;;;15.80;;
7917;SDS011;4004;42.624;23.386;2024-02-28T08:17:31;20.17;;;15.83;;
7917;SDS011;4004;42.624;23.386;2024-02-28T08:19:58;28.83;;;15.83;;
7917;SDS011;4004;42.624;23.386;2024-02-28T08:22:25;21.07;;;15.20;;
7917;SDS011;4004;42.624;23.386;2024-02-28T08:24:54;21.70;;;16.60;;
7917;SDS011;4004;42.624;23.386;2024-02-28T08:27:22;19.77;;;15.90;;
7917;SDS011;4004;42.624;23.386;2024-02-28T08:29:49;19.17;;;14.23;;
7917;SDS011;4004;42.624;23.386;2024-02-28T08:32:16;20.87;;;14.43;;
7917;SDS011;4004;42.624;23.386;2024-02-28T08:34:43;16.97;;;14.73;;
7917;SDS011;4004;42.624;23.386;2024-02-28T08:37:11;20.30;;;15.40;;
7917;SDS011;4004;42.624;23.386;2024-02-28T08:39:38;19.33;;;14.83;;
7917;SDS011;4004;42.624;23.386;2024-02-28T08:42:06;22.53;;;15.33;;
7917;SDS011;4004;42.624;23.386;2024-02-28T08:44:33;23.97;;;15.20;;
7917;SDS011;4004;42.624;23.386;2024-02-28T08:47:00;24.13;;;14.87;;
7917;SDS011;4004;42.624;23.386;2024-02-28T08:49:27;19.33;;;15.03;;
7917;SDS011;4004;42.624;23.386;2024-02-28T08:51:54;21.50;;;15.67;;
7917;SDS011;4004;42.624;23.386;2024-02-28T08:54:21;20.03;;;14.50;;
7917;SDS011;4004;42.624;23.386;2024-02-28T08:56:48;19.17;;;13.70;;
7917;SDS011;4004;42.624;23.386;2024-02-28T08:59:16;19.43;;;14.07;;
7917;SDS011;4004;42.624;23.386;2024-02-28T09:01:43;21.57;;;15.00;;
7917;SDS011;4004;42.624;23.386;2024-02-28T09:04:10;20.30;;;14.47;;
7917;SDS011;4004;42.624;23.386;2024-02-28T09:06:37;15.57;;;13.03;;
7917;SDS011;4004;42.624;23.386;2024-02-28T09:09:04;20.77;;;14.90;;
7917;SDS011;4004;42.624;23.386;2024-02-28T09:11:31;19.30;;;14.20;;
7917;SDS011;4004;42.624;23.386;2024-02-28T09:13:58;19.40;;;14.17;;
7917;SDS011;4004;42.624;23.386;2024-02-28T09:16:27;20.87;;;13.50;;
7917;SDS011;4004;42.624;23.386;2024-02-28T09:18:53;25.83;;;14.47;;
7917;SDS011;4004;42.624;23.386;2024-02-28T09:21:20;24.57;;;14.00;;
7917;SDS011;4004;42.624;23.386;2024-02-28T09:23:47;25.07;;;12.70;;
7917;SDS011;4004;42.624;23.386;2024-02-28T09:26:14;23.87;;;14.00;;
7917;SDS011;4004;42.624;23.386;2024-02-28T09:28:41;17.73;;;14.37;;
7917;SDS011;4004;42.624;23.386;2024-02-28T09:31:08;25.47;;;14.57;;
7917;SDS011;4004;42.624;23.386;2024-02-28T09:33:36;22.47;;;14.73;;
7917;SDS011;4004;42.624;23.386;2024-02-28T09:36:04;22.93;;;13.77;;
7917;SDS011;4004;42.624;23.386;2024-02-28T09:38:31;20.33;;;13.23;;
7917;SDS011;4004;42.624;23.386;2024-02-28T09:41:00;17.43;;;13.83;;
7917;SDS011;4004;42.624;23.386;2024-02-28T09:43:28;19.60;;;13.90;;
7917;SDS011;4004;42.624;23.386;2024-02-28T09:45:57;17.07;;;12.47;;
7917;SDS011;4004;42.624;23.386;2024-02-28T09:48:26;16.77;;;11.73;;
7917;SDS011;4004;42.624;23.386;2024-02-28T09:50:56;21.50;;;13.17;;
7917;SDS011;4004;42.624;23.386;2024-02-28T09:53:23;13.73;;;12.20;;
7917;SDS011;4004;42.624;23.386;2024-02-28T09:55:50;17.20;;;12.67;;
7917;SDS011;4004;42.624;23.386;2024-02-28T09:58:17;20.13;;;12.97;;
7917;SDS011;4004;42.624;23.386;2024-02-28T10:00:46;16.97;;;13.10;;
7917;SDS011;4004;42.624;23.386;2024-02-28T10:03:13;20.30;;;12.73;;
7917;SDS011;4004;42.624;23.386;2024-02-28T10:05:43;16.03;;;12.17;;
7917;SDS011;4004;42.624;23.386;2024-02-28T10:08:12;15.53;;;11.43;;
7917;SDS011;4004;42.624;23.386;2024-02-28T10:10:44;20.00;;;11.47;;
7917;SDS011;4004;42.624;23.386;2024-02-28T10:13:12;13.83;;;10.83;;
7917;SDS011;4004;42.624;23.386;2024-02-28T10:15:39;15.37;;;11.43;;
7917;SDS011;4004;42.624;23.386;2024-02-28T10:18:06;18.23;;;11.93;;
7917;SDS011;4004;42.624;23.386;2024-02-28T10:20:33;23.30;;;12.23;;
7917;SDS011;4004;42.624;23.386;2024-02-28T10:23:03;16.60;;;11.57;;
7917;SDS011;4004;42.624;23.386;2024-02-28T10:25:32;18.17;;;12.37;;
7917;SDS011;4004;42.624;23.386;2024-02-28T10:27:59;17.37;;;11.33;;
7917;SDS011;4004;42.624;23.386;2024-02-28T10:30:27;14.33;;;11.07;;
7917;SDS011;4004;42.624;23.386;2024-02-28T10:32:53;16.53;;;11.77;;
7917;SDS011;4004;42.624;23.386;2024-02-28T10:35:21;11.23;;;9.47;;
7917;SDS011;4004;42.624;23.386;2024-02-28T10:37:51;17.17;;;9.57;;
7917;SDS011;4004;42.624;23.386;2024-02-28T10:40:20;12.60;;;9.30;;
7917;SDS011;4004;42.624;23.386;2024-02-28T10:42:49;13.07;;;9.67;;
7917;SDS011;4004;42.624;23.386;2024-02-28T10:45:16;15.17;;;8.67;;
7917;SDS011;4004;42.624;23.386;2024-02-28T10:47:44;18.03;;;9.37;;
7917;SDS011;4004;42.624;23.386;2024-02-28T10:50:12;14.63;;;8.70;;
7917;SDS011;4004;42.624;23.386;2024-02-28T10:52:42;15.80;;;8.10;;
7917;SDS011;4004;42.624;23.386;2024-02-28T10:55:12;12.63;;;7.80;;
7917;SDS011;4004;42.624;23.386;2024-02-28T10:57:42;20.90;;;9.20;;
7917;SDS011;4004;42.624;23.386;2024-02-28T11:00:14;11.40;;;7.83;;
7917;SDS011;4004;42.624;23.386;2024-02-28T11:02:43;18.00;;;7.97;;
7917;SDS011;4004;42.624;23.386;2024-02-28T11:05:11;17.90;;;8.23;;
7917;SDS011;4004;42.624;23.386;2024-02-28T11:07:40;14.60;;;8.53;;
7917;SDS011;4004;42.624;23.386;2024-02-28T11:10:08;15.83;;;7.70;;
7917;SDS011;4004;42.624;23.386;2024-02-28T11:12:36;22.03;;;8.37;;
7917;SDS011;4004;42.624;23.386;2024-02-28T11:15:04;23.10;;;7.27;;
7917;SDS011;4004;42.624;23.386;2024-02-28T11:17:35;13.47;;;7.33;;
7917;SDS011;4004;42.624;23.386;2024-02-28T11:20:10;14.93;;;7.73;;
7917;SDS011;4004;42.624;23.386;2024-02-28T11:22:38;10.43;;;6.70;;
7917;SDS011;4004;42.624;23.386;2024-02-28T11:25:06;63.50;;;10.03;;
7917;SDS011;4004;42.624;23.386;2024-02-28T11:27:33;16.20;;;6.53;;
7917;SDS011;4004;42.624;23.386;2024-02-28T11:30:00;11.27;;;6.63;;
7917;SDS011;4004;42.624;23.386;2024-02-28T11:32:29;18.43;;;8.20;;
7917;SDS011;4004;42.624;23.386;2024-02-28T11:34:58;13.70;;;7.07;;
7917;SDS011;4004;42.624;23.386;2024-02-28T11:37:27;10.20;;;6.53;;
7917;SDS011;4004;42.624;23.386;2024-02-28T11:39:54;7.70;;;6.70;;
7917;SDS011;4004;42.624;23.386;2024-02-28T11:42:21;10.37;;;7.33;;
7917;SDS011;4004;42.624;23.386;2024-02-28T11:44:57;11.80;;;8.37;;
7917;SDS011;4004;42.624;23.386;2024-02-28T11:47:25;10.57;;;7.23;;
7917;SDS011;4004;42.624;23.386;2024-02-28T11:49:52;14.63;;;7.87;;
7917;SDS011;4004;42.624;23.386;2024-02-28T11:52:20;15.73;;;7.57;;
7917;SDS011;4004;42.624;23.386;2024-02-28T11:54:47;11.70;;;7.07;;
7917;SDS011;4004;42.624;23.386;2024-02-28T11:57:14;8.60;;;7.53;;
7917;SDS011;4004;42.624;23.386;2024-02-28T11:59:43;13.23;;;7.07;;
7917;SDS011;4004;42.624;23.386;2024-02-28T12:02:13;12.10;;;7.13;;
7917;SDS011;4004;42.624;23.386;2024-02-28T12:04:41;15.67;;;7.93;;
7917;SDS011;4004;42.624;23.386;2024-02-28T12:07:08;17.83;;;8.37;;
7917;SDS011;4004;42.624;23.386;2024-02-28T12:09:37;12.07;;;9.10;;
7917;SDS011;4004;42.624;23.386;2024-02-28T12:12:06;19.77;;;8.97;;
7917;SDS011;4004;42.624;23.386;2024-02-28T12:14:36;15.13;;;8.30;;
7917;SDS011;4004;42.624;23.386;2024-02-28T12:17:03;20.73;;;9.37;;
7917;SDS011;4004;42.624;23.386;2024-02-28T12:19:30;16.50;;;8.67;;
7917;SDS011;4004;42.624;23.386;2024-02-28T12:21:57;12.37;;;8.33;;
7917;SDS011;4004;42.624;23.386;2024-02-28T12:24:24;12.03;;;8.90;;
7917;SDS011;4004;42.624;23.386;2024-02-28T12:26:52;15.57;;;9.60;;
7917;SDS011;4004;42.624;23.386;2024-02-28T12:29:19;21.50;;;9.93;;
7917;SDS011;4004;42.624;23.386;2024-02-28T12:31:46;24.23;;;10.80;;
7917;SDS011;4004;42.624;23.386;2024-02-28T12:34:13;13.60;;;8.90;;
7917;SDS011;4004;42.624;23.386;2024-02-28T12:36:41;17.57;;;9.63;;
7917;SDS011;4004;42.624;23.386;2024-02-28T12:39:08;16.27;;;9.07;;
7917;SDS011;4004;42.624;23.386;2024-02-28T12:41:36;15.70;;;9.70;;
7917;SDS011;4004;42.624;23.386;2024-02-28T12:44:05;16.40;;;8.57;;
7917;SDS011;4004;42.624;23.386;2024-02-28T12:46:32;15.43;;;10.00;;
7917;SDS011;4004;42.624;23.386;2024-02-28T12:48:59;16.07;;;8.83;;
7917;SDS011;4004;42.624;23.386;2024-02-28T12:51:36;17.30;;;9.30;;
7917;SDS011;4004;42.624;23.386;2024-02-28T12:54:05;16.27;;;7.70;;
7917;SDS011;4004;42.624;23.386;2024-02-28T12:56:32;10.07;;;7.10;;
7917;SDS011;4004;42.624;23.386;2024-02-28T12:58:59;9.43;;;6.73;;
7917;SDS011;4004;42.624;23.386;2024-02-28T13:01:28;14.80;;;8.80;;
7917;SDS011;4004;42.624;23.386;2024-02-28T13:03:55;12.97;;;7.27;;
7917;SDS011;4004;42.624;23.386;2024-02-28T13:06:22;10.57;;;7.80;;
7917;SDS011;4004;42.624;23.386;2024-02-28T13:08:49;21.60;;;8.20;;
7917;SDS011;4004;42.624;23.386;2024-02-28T13:11:17;13.47;;;8.00;;
7917;SDS011;4004;42.624;23.386;2024-02-28T13:13:45;15.97;;;7.87;;
7917;SDS011;4004;42.624;23.386;2024-02-28T13:16:12;15.80;;;8.27;;
7917;SDS011;4004;42.624;23.386;2024-02-28T13:18:42;13.63;;;7.87;;
7917;SDS011;4004;42.624;23.386;2024-02-28T13:21:09;28.00;;;8.63;;
7917;SDS011;4004;42.624;23.386;2024-02-28T13:23:36;23.53;;;8.60;;
7917;SDS011;4004;42.624;23.386;2024-02-28T13:26:03;14.23;;;8.53;;
7917;SDS011;4004;42.624;23.386;2024-02-28T13:28:30;15.53;;;7.77;;
7917;SDS011;4004;42.624;23.386;2024-02-28T13:30:57;16.37;;;8.13;;
7917;SDS011;4004;42.624;23.386;2024-02-28T13:33:25;17.30;;;8.63;;
7917;SDS011;4004;42.624;23.386;2024-02-28T13:35:53;22.17;;;8.10;;
7917;SDS011;4004;42.624;23.386;2024-02-28T13:38:21;26.13;;;8.87;;
7917;SDS011;4004;42.624;23.386;2024-02-28T13:40:48;23.63;;;8.47;;
7917;SDS011;4004;42.624;23.386;2024-02-28T13:43:15;25.10;;;8.90;;
7917;SDS011;4004;42.624;23.386;2024-02-28T13:45:46;19.57;;;10.03;;
7917;SDS011;4004;42.624;23.386;2024-02-28T13:48:15;17.33;;;8.00;;
7917;SDS011;4004;42.624;23.386;2024-02-28T13:50:43;19.30;;;8.60;;
7917;SDS011;4004;42.624;23.386;2024-02-28T13:53:12;13.57;;;8.60;;
7917;SDS011;4004;42.624;23.386;2024-02-28T13:55:40;17.63;;;8.30;;
7917;SDS011;4004;42.624;23.386;2024-02-28T13:58:07;24.60;;;9.67;;
7917;SDS011;4004;42.624;23.386;2024-02-28T14:00:36;19.03;;;9.40;;
7917;SDS011;4004;42.624;23.386;2024-02-28T14:03:03;19.03;;;8.87;;
7917;SDS011;4004;42.624;23.386;2024-02-28T14:05:31;29.80;;;9.80;;
7917;SDS011;4004;42.624;23.386;2024-02-28T14:07:58;30.50;;;11.33;;
7917;SDS011;4004;42.624;23.386;2024-02-28T14:10:26;16.30;;;8.70;;
7917;SDS011;4004;42.624;23.386;2024-02-28T14:12:53;25.67;;;8.60;;
7917;SDS011;4004;42.624;23.386;2024-02-28T14:15:20;21.33;;;9.37;;
7917;SDS011;4004;42.624;23.386;2024-02-28T14:17:47;40.67;;;10.87;;
7917;SDS011;4004;42.624;23.386;2024-02-28T14:20:14;35.00;;;9.97;;
7917;SDS011;4004;42.624;23.386;2024-02-28T14:22:41;18.40;;;8.80;;
7917;SDS011;4004;42.624;23.386;2024-02-28T14:25:10;20.63;;;8.43;;
7917;SDS011;4004;42.624;23.386;2024-02-28T14:27:40;14.10;;;7.73;;
7917;SDS011;4004;42.624;23.386;2024-02-28T14:30:08;21.17;;;8.57;;
7917;SDS011;4004;42.624;23.386;2024-02-28T14:32:36;23.33;;;8.97;;
7917;SDS011;4004;42.624;23.386;2024-02-28T14:35:03;23.37;;;10.07;;
7917;SDS011;4004;42.624;23.386;2024-02-28T14:37:31;16.03;;;9.10;;
7917;SDS011;4004;42.624;23.386;2024-02-28T14:39:59;29.80;;;10.07;;